Time;durP1;ratioP1;P1;durP2;ratioP2;P2;SDS_P1;SDS_P2;PMS_P1;PMS_P2;Temp;Humidity;BMP_temperature;BMP_pressure;BME280_temperature;BME280_humidity;BME280_pressure;Samples;Min_cycle;Max_cycle;Signal;HPM_P1;HPM_P2
2022/04/13 00:00:17;;;;;;;3.40;2.47;;;;;;;19.56;40.77;101402.72;4900159;29;20052;-76
2022/04/13 00:02:44;;;;;;;4.72;2.20;;;;;;;19.55;40.71;101391.13;4900190;29;20053;-77
2022/04/13 00:05:12;;;;;;;4.00;2.53;;;;;;;19.56;40.86;101400.03;4900070;29;20052;-76
2022/04/13 00:07:39;;;;;;;4.40;2.22;;;;;;;19.55;40.77;101403.69;4899427;29;20052;-76
2022/04/13 00:10:07;;;;;;;3.88;2.35;;;;;;;19.55;40.88;101404.53;4899233;29;20060;-76
2022/04/13 00:12:35;;;;;;;4.03;2.25;;;;;;;19.54;40.81;101402.84;4899428;29;20048;-76
2022/04/13 00:15:05;;;;;;;4.07;2.67;;;;;;;19.55;41.01;101403.69;4899504;29;20492;-76
2022/04/13 00:17:32;;;;;;;3.60;2.42;;;;;;;19.54;40.96;101400.16;4899691;29;20041;-75
2022/04/13 00:20:00;;;;;;;3.50;2.38;;;;;;;19.55;40.86;101398.31;4882228;29;20059;-73
2022/04/13 00:22:27;;;;;;;4.43;2.47;;;;;;;19.55;41.04;101395.66;4899654;29;20056;-75
2022/04/13 00:24:55;;;;;;;5.65;3.00;;;;;;;19.54;40.83;101394.78;4898670;29;20053;-76
2022/04/13 00:27:22;;;;;;;3.55;2.40;;;;;;;19.54;41.07;101394.78;4898458;29;20049;-75
2022/04/13 00:29:49;;;;;;;3.67;2.55;;;;;;;19.53;41.27;101385.03;4898630;29;20056;-75
2022/04/13 00:32:17;;;;;;;3.78;2.60;;;;;;;19.53;41.12;101379.66;4898312;29;20053;-76
2022/04/13 00:34:44;;;;;;;5.20;2.70;;;;;;;19.53;41.07;101382.34;4899118;29;20044;-76
2022/04/13 00:37:11;;;;;;;3.25;2.42;;;;;;;19.52;41.12;101378.78;4898812;29;20103;-76
2022/04/13 00:39:39;;;;;;;4.85;2.72;;;;;;;19.53;41.00;101379.66;4899287;29;20428;-75
2022/04/13 00:42:07;;;;;;;4.30;3.05;;;;;;;19.53;40.91;101382.34;4899173;29;20396;-75
2022/04/13 00:44:36;;;;;;;3.70;2.60;;;;;;;19.53;41.20;101379.66;4880728;29;20052;-75
2022/04/13 00:47:07;;;;;;;4.03;2.53;;;;;;;19.53;41.07;101379.66;4899262;29;20476;-75
2022/04/13 00:49:36;;;;;;;3.85;2.30;;;;;;;19.52;41.38;101386.84;4898731;29;20049;-75
2022/04/13 00:52:05;;;;;;;5.32;2.72;;;;;;;19.52;41.07;101378.78;4898598;29;20075;-75
2022/04/13 00:54:34;;;;;;;4.47;2.90;;;;;;;19.51;41.19;101385.13;4898661;29;20049;-75
2022/04/13 00:57:09;;;;;;;4.60;2.60;;;;;;;19.51;40.96;101381.59;4898208;29;20492;-75
2022/04/13 00:59:39;;;;;;;4.72;2.78;;;;;;;19.52;41.31;101380.59;4898544;29;20433;-75
2022/04/13 01:02:08;;;;;;;4.13;2.75;;;;;;;19.51;41.15;101377.06;4898575;29;20051;-74
2022/04/13 01:04:36;;;;;;;3.05;2.30;;;;;;;19.50;41.23;101370.00;4881719;29;20060;-75
2022/04/13 01:07:09;;;;;;;3.58;2.60;;;;;;;19.50;41.19;101372.69;4898022;29;20052;-75
2022/04/13 01:09:37;;;;;;;3.60;2.97;;;;;;;19.51;41.38;101373.53;4897843;29;20048;-75
2022/04/13 01:12:05;;;;;;;4.57;2.75;;;;;;;19.50;41.08;101370.00;4898736;29;20044;-75
2022/04/13 01:14:32;;;;;;;4.78;2.90;;;;;;;19.50;41.08;101378.06;4897914;29;20056;-75
2022/04/13 01:17:00;;;;;;;5.95;2.50;;;;;;;19.50;41.20;101383.44;4898116;29;20052;-75
2022/04/13 01:19:39;;;;;;;3.97;2.83;;;;;;;19.50;41.19;101390.63;4882336;29;20055;-75
2022/04/13 01:22:17;;;;;;;4.95;2.60;;;;;;;19.50;41.32;101385.25;4897578;29;20052;-75
2022/04/13 01:24:45;;;;;;;4.55;2.75;;;;;;;19.49;41.27;101384.41;4897446;29;20045;-75
2022/04/13 01:27:14;;;;;;;3.50;2.60;;;;;;;19.49;41.23;101372.81;4897925;29;20064;-75
2022/04/13 01:29:46;;;;;;;5.55;2.63;;;;;;;19.49;41.09;101367.44;4897938;29;20053;-75
2022/04/13 01:32:13;;;;;;;4.15;2.42;;;;;;;19.49;41.25;101372.81;4897654;29;20048;-75
2022/04/13 01:34:49;;;;;;;3.72;2.72;;;;;;;19.48;41.12;101380.00;4897330;29;20374;-75
2022/04/13 01:37:17;;;;;;;4.10;2.45;;;;;;;19.48;41.27;101382.69;4897590;29;20057;-75
2022/04/13 01:39:45;;;;;;;5.50;2.63;;;;;;;19.49;41.33;101388.94;4898214;29;20055;-75
2022/04/13 01:42:12;;;;;;;3.55;2.40;;;;;;;19.48;41.27;101388.03;4898217;29;20484;-75
2022/04/13 01:44:43;;;;;;;3.75;2.85;;;;;;;19.48;41.29;101397.94;4897913;29;20504;-75
2022/04/13 01:47:10;;;;;;;3.30;2.30;;;;;;;19.48;41.45;101395.25;4898393;29;20369;-75
2022/04/13 01:49:38;;;;;;;4.32;2.90;;;;;;;19.48;41.45;101395.25;4897688;29;20053;-75
2022/04/13 01:52:07;;;;;;;3.50;2.83;;;;;;;19.48;41.45;101388.03;4897349;29;20055;-75
2022/04/13 01:54:35;;;;;;;3.92;3.00;;;;;;;19.48;41.38;101381.81;4897385;29;20052;-75
2022/04/13 01:57:03;;;;;;;4.35;2.45;;;;;;;19.47;41.50;101380.13;4896749;29;20049;-75
2022/04/13 01:59:30;;;;;;;4.20;2.63;;;;;;;19.46;41.56;101384.63;4897528;29;20041;-75
2022/04/13 02:01:58;;;;;;;3.40;2.90;;;;;;;19.47;41.42;101390.88;4897613;29;20527;-75
2022/04/13 02:04:26;;;;;;;4.80;2.95;;;;;;;19.46;41.53;101392.69;4897570;29;20056;-75
2022/04/13 02:06:54;;;;;;;3.78;2.92;;;;;;;19.46;41.45;101392.69;4897086;29;20405;-74
2022/04/13 02:09:21;;;;;;;3.28;2.60;;;;;;;19.47;41.43;101388.19;4896937;29;20048;-75
2022/04/13 02:11:49;;;;;;;4.40;2.75;;;;;;;19.46;41.60;101381.09;4896569;29;20067;-75
2022/04/13 02:14:16;;;;;;;4.25;3.08;;;;;;;19.46;41.47;101389.16;4898028;29;20061;-75
2022/04/13 02:16:44;;;;;;;4.03;2.58;;;;;;;19.46;41.50;101397.22;4897592;29;20053;-75
2022/04/13 02:19:12;;;;;;;4.78;2.60;;;;;;;19.46;41.53;101381.09;4896662;29;20044;-75
2022/04/13 02:21:39;;;;;;;4.97;2.95;;;;;;;19.45;41.57;101379.41;4896805;29;20048;-75
2022/04/13 02:24:07;;;;;;;3.95;2.80;;;;;;;19.45;41.66;101374.88;4896172;29;20053;-75
2022/04/13 02:26:35;;;;;;;5.30;3.10;;;;;;;19.45;41.46;101374.03;4896884;29;20055;-74
2022/04/13 02:29:02;;;;;;;3.55;3.10;;;;;;;19.44;41.44;101378.50;4881406;29;20048;-75
2022/04/13 02:31:30;;;;;;;5.68;3.08;;;;;;;19.44;41.51;101377.66;4896644;29;20508;-75
2022/04/13 02:33:57;;;;;;;3.83;2.83;;;;;;;19.43;41.70;101381.34;4896575;29;20060;-75
2022/04/13 02:36:25;;;;;;;5.20;2.80;;;;;;;19.44;41.53;101372.28;4897456;29;20053;-75
2022/04/13 02:38:53;;;;;;;3.50;2.85;;;;;;;19.44;41.47;101378.50;4896814;29;20055;-80
2022/04/13 02:41:21;;;;;;;6.78;3.10;;;;;;;19.43;41.66;101371.44;4897122;29;20404;-75
2022/04/13 02:43:48;;;;;;;4.50;2.42;;;;;;;19.43;41.79;101374.13;4896831;29;20060;-75
2022/04/13 02:46:16;;;;;;;4.28;3.13;;;;;;;19.43;41.56;101366.06;4895658;29;20051;-75
2022/04/13 02:48:43;;;;;;;4.85;3.08;;;;;;;19.43;41.68;101371.44;4896986;29;20067;-75
2022/04/13 02:51:10;;;;;;;3.60;2.60;;;;;;;19.43;41.77;101358.03;4897272;29;20056;-76
2022/04/13 02:53:38;;;;;;;3.83;3.00;;;;;;;19.43;41.77;101357.16;4896816;29;20075;-76
2022/04/13 02:56:05;;;;;;;3.50;3.05;;;;;;;19.42;41.80;101361.69;4897281;29;20064;-75
2022/04/13 02:58:32;;;;;;;7.03;3.20;;;;;;;19.42;41.65;101364.38;4897939;29;20507;-76
2022/04/13 03:01:03;;;;;;;6.20;3.30;;;;;;;19.42;41.79;101360.84;4897284;29;20052;-76
2022/04/13 03:03:31;;;;;;;4.88;2.75;;;;;;;19.42;41.88;101352.78;4896766;29;20052;-76
2022/04/13 03:05:58;;;;;;;3.22;2.30;;;;;;;19.42;41.84;101350.09;4896545;29;20404;-75
2022/04/13 03:08:25;;;;;;;3.30;2.65;;;;;;;19.42;41.83;101347.41;4896732;29;20044;-75
2022/04/13 03:10:53;;;;;;;3.75;2.67;;;;;;;19.41;41.76;101351.09;4897141;29;20055;-75
2022/04/13 03:13:21;;;;;;;4.75;2.97;;;;;;;19.41;41.86;101351.09;4895996;29;20399;-76
2022/04/13 03:15:48;;;;;;;3.20;2.40;;;;;;;19.41;41.78;101348.41;4896322;29;20057;-75
2022/04/13 03:18:15;;;;;;;3.97;2.83;;;;;;;19.40;41.76;101342.13;4894645;29;20064;-75
2022/04/13 03:20:43;;;;;;;3.33;2.50;;;;;;;19.40;41.70;101347.50;4896162;29;20048;-76
2022/04/13 03:23:10;;;;;;;4.13;2.83;;;;;;;19.40;41.69;101346.66;4896387;29;20048;-75
2022/04/13 03:25:37;;;;;;;3.30;2.60;;;;;;;19.40;41.67;101358.25;4897106;29;20048;-75
2022/04/13 03:28:05;;;;;;;4.25;3.03;;;;;;;19.39;41.82;101353.88;4896710;29;20057;-75
2022/04/13 03:30:32;;;;;;;4.90;3.28;;;;;;;19.40;41.90;101357.41;4896627;29;20052;-75
2022/04/13 03:32:59;;;;;;;3.75;2.90;;;;;;;19.39;41.70;101355.69;4901807;29;20052;-75
2022/04/13 03:35:27;;;;;;;4.28;2.50;;;;;;;19.39;41.90;101353.00;4902235;29;20485;-75
2022/04/13 03:37:55;;;;;;;3.55;2.67;;;;;;;19.39;41.84;101355.69;4884467;29;20060;-75
2022/04/13 03:40:23;;;;;;;3.15;2.30;;;;;;;19.37;41.82;101352.28;4902127;29;20048;-75
2022/04/13 03:42:50;;;;;;;4.32;2.97;;;;;;;19.38;41.84;101357.53;4902698;29;20053;-75
2022/04/13 03:45:17;;;;;;;4.07;2.88;;;;;;;19.39;41.80;101363.75;4902550;29;20057;-75
2022/04/13 03:47:45;;;;;;;3.00;2.33;;;;;;;19.38;41.85;101364.75;4902741;29;20049;-75
2022/04/13 03:50:12;;;;;;;3.53;2.90;;;;;;;19.37;41.88;101366.56;4901578;29;20047;-75
2022/04/13 03:52:40;;;;;;;4.07;2.70;;;;;;;19.37;41.52;101363.88;4901949;29;20052;-74
2022/04/13 03:55:08;;;;;;;4.40;2.53;;;;;;;19.37;41.76;101369.25;4902118;29;20503;-75
2022/04/13 03:57:36;;;;;;;3.97;2.72;;;;;;;19.36;41.84;101364.84;4901942;29;20048;-75
2022/04/13 04:00:04;;;;;;;3.60;2.45;;;;;;;19.36;41.88;101358.63;4901596;29;20079;-75
2022/04/13 04:02:39;;;;;;;4.10;3.05;;;;;;;19.36;41.91;101350.56;4906916;29;20060;-76
2022/04/13 04:05:07;;;;;;;4.30;2.38;;;;;;;19.35;41.75;101355.06;4901663;29;20044;-74
2022/04/13 04:07:35;;;;;;;3.40;2.70;;;;;;;19.36;41.64;101353.25;4901470;29;20044;-75
2022/04/13 04:10:04;;;;;;;3.33;2.50;;;;;;;19.36;41.77;101351.41;4902447;29;20051;-73
2022/04/13 04:12:41;;;;;;;3.78;2.60;;;;;;;19.36;41.79;101363.97;4902519;29;20503;-75
2022/04/13 04:15:10;;;;;;;4.22;2.78;;;;;;;19.36;41.78;101361.28;4901529;29;20063;-75
2022/04/13 04:17:37;;;;;;;3.53;2.38;;;;;;;19.36;41.84;101372.88;4901613;29;20047;-75
2022/04/13 04:20:06;;;;;;;4.00;2.80;;;;;;;19.35;42.16;101365.81;4902220;29;20055;-76
2022/04/13 04:22:35;;;;;;;4.15;2.58;;;;;;;19.35;42.06;101356.91;4901602;29;20048;-75
2022/04/13 04:25:04;;;;;;;4.47;2.75;;;;;;;19.34;41.93;101364.13;4899863;29;20052;-75
2022/04/13 04:27:31;;;;;;;3.22;2.85;;;;;;;19.35;42.09;101370.34;4901491;29;20053;-76
2022/04/13 04:29:59;;;;;;;3.80;2.53;;;;;;;19.34;41.79;101366.81;4901553;29;20056;-76
2022/04/13 04:32:26;;;;;;;4.78;3.08;;;;;;;19.35;42.02;101375.69;4902537;29;20349;-76
2022/04/13 04:34:54;;;;;;;4.47;2.90;;;;;;;19.33;41.71;101365.09;4902197;29;20044;-73
2022/04/13 04:37:21;;;;;;;4.95;3.22;;;;;;;19.34;42.00;101374.00;4900023;29;20404;-75
2022/04/13 04:39:48;;;;;;;6.03;2.65;;;;;;;19.34;42.13;101379.38;4902331;29;20048;-75
2022/04/13 04:42:16;;;;;;;5.07;2.90;;;;;;;19.34;42.10;101380.22;4902158;29;20044;-76
2022/04/13 04:44:43;;;;;;;4.57;3.20;;;;;;;19.34;42.07;101384.75;4897335;29;20097;-75
2022/04/13 04:47:10;;;;;;;4.70;2.83;;;;;;;19.34;41.92;101384.75;4898731;29;20048;-75
2022/04/13 04:49:38;;;;;;;4.35;3.00;;;;;;;19.33;41.97;101383.88;4899013;29;20049;-75
2022/04/13 04:52:05;;;;;;;5.32;3.22;;;;;;;19.33;42.00;101383.03;4898527;29;20063;-75
2022/04/13 04:54:32;;;;;;;3.58;2.83;;;;;;;19.33;41.86;101377.66;4899094;29;20060;-75
2022/04/13 04:57:00;;;;;;;5.35;3.20;;;;;;;19.32;42.02;101386.66;4898815;29;20059;-75
2022/04/13 04:59:27;;;;;;;4.55;3.33;;;;;;;19.31;41.99;101391.19;4899419;29;20048;-75
2022/04/13 05:01:54;;;;;;;3.63;2.65;;;;;;;19.31;41.99;101385.81;4899688;29;20389;-75
2022/04/13 05:04:22;;;;;;;4.03;2.75;;;;;;;19.31;41.91;101385.81;4898049;29;20056;-75
2022/04/13 05:06:49;;;;;;;6.53;3.55;;;;;;;19.30;41.89;101389.50;4898025;29;20067;-75
2022/04/13 05:09:22;;;;;;;4.35;2.75;;;;;;;19.31;41.95;101390.34;4898871;29;20053;-75
2022/04/13 05:11:49;;;;;;;7.20;3.38;;;;;;;19.30;41.92;101384.13;4881679;29;20056;-75
2022/04/13 05:14:18;;;;;;;6.72;3.08;;;;;;;19.30;41.92;101388.63;4897945;29;20061;-75
2022/04/13 05:16:46;;;;;;;4.82;2.95;;;;;;;19.29;41.86;101393.16;4898692;29;20469;-76
2022/04/13 05:19:15;;;;;;;6.63;3.25;;;;;;;19.30;41.90;101388.63;4897209;29;20048;-76
2022/04/13 05:21:42;;;;;;;3.25;2.67;;;;;;;19.29;41.99;101387.78;4898598;29;20059;-75
2022/04/13 05:24:10;;;;;;;3.38;2.50;;;;;;;19.29;41.93;101392.31;4899052;29;20058;-75
2022/04/13 05:26:38;;;;;;;4.65;3.53;;;;;;;19.29;42.07;101393.16;4898379;29;20049;-75
2022/04/13 05:29:06;;;;;;;4.68;3.15;;;;;;;19.29;42.06;101397.66;4897824;29;20064;-75
2022/04/13 05:31:33;;;;;;;3.55;2.83;;;;;;;19.28;41.96;101404.84;4898040;29;20060;-75
2022/04/13 05:34:01;;;;;;;3.97;2.65;;;;;;;19.28;42.05;101410.22;4898355;29;20052;-74
2022/04/13 05:36:28;;;;;;;4.40;2.83;;;;;;;19.28;41.98;101407.53;4897451;29;20048;-75
2022/04/13 05:38:55;;;;;;;5.47;3.22;;;;;;;19.27;42.03;101412.03;4897637;29;20052;-75
2022/04/13 05:41:23;;;;;;;4.60;3.13;;;;;;;19.28;41.88;101407.53;4896838;29;20068;-75
2022/04/13 05:43:50;;;;;;;5.38;3.10;;;;;;;19.27;41.99;101409.34;4897401;29;20481;-75
2022/04/13 05:46:17;;;;;;;5.82;3.88;;;;;;;19.29;41.97;101421.84;4897575;29;20493;-74
2022/04/13 05:48:45;;;;;;;4.20;2.92;;;;;;;19.28;41.98;101415.56;4897869;29;20049;-74
2022/04/13 05:51:13;;;;;;;3.63;2.92;;;;;;;19.29;42.20;101422.69;4897377;29;20049;-74
2022/04/13 05:53:40;;;;;;;5.28;3.60;;;;;;;19.28;41.92;101420.94;4897488;29;20059;-75
2022/04/13 05:56:07;;;;;;;6.40;3.13;;;;;;;19.28;42.03;101426.31;4897416;28;20112;-75
2022/04/13 05:58:35;;;;;;;4.80;2.83;;;;;;;19.30;41.97;101434.28;4896626;29;20064;-74
2022/04/13 06:01:02;;;;;;;4.68;3.30;;;;;;;19.29;42.00;101425.38;4896971;29;20041;-75
2022/04/13 06:03:29;;;;;;;4.30;3.13;;;;;;;19.29;42.08;101425.38;4896590;29;20056;-74
2022/04/13 06:06:12;;;;;;;3.97;2.65;;;;;;;19.29;42.07;101424.50;4897669;29;20052;-74
2022/04/13 06:08:39;;;;;;;4.03;3.25;;;;;;;19.29;42.12;101425.38;4896927;29;20049;-75
2022/04/13 06:11:07;;;;;;;4.53;3.20;;;;;;;19.30;42.08;101426.22;4897183;29;20384;-74
2022/04/13 06:13:34;;;;;;;5.82;3.65;;;;;;;19.29;42.08;101424.50;4897804;29;20487;-75
2022/04/13 06:16:02;;;;;;;4.20;3.22;;;;;;;19.30;42.08;101431.59;4897196;29;20056;-75
2022/04/13 06:18:30;;;;;;;4.93;3.50;;;;;;;19.30;42.14;101434.28;4897126;29;20053;-74
2022/04/13 06:20:57;;;;;;;5.22;3.03;;;;;;;19.30;42.03;101434.28;4897041;29;20060;-75
2022/04/13 06:23:25;;;;;;;4.78;3.70;;;;;;;19.29;42.13;101438.78;4896293;29;20053;-74
2022/04/13 06:25:52;;;;;;;5.03;3.60;;;;;;;19.30;42.29;101442.31;4896882;29;20052;-74
2022/04/13 06:28:19;;;;;;;5.68;3.25;;;;;;;19.30;42.18;101440.50;4897015;29;20052;-74
2022/04/13 06:30:46;;;;;;;8.80;4.43;;;;;;;19.31;42.06;101438.66;4897051;29;20045;-74
2022/04/13 06:33:14;;;;;;;9.63;4.13;;;;;;;19.31;42.10;101444.88;4896952;29;20057;-74
2022/04/13 06:35:41;;;;;;;11.35;4.45;;;;;;;19.32;42.24;101445.72;4896540;29;20040;-74
2022/04/13 06:38:09;;;;;;;9.15;3.97;;;;;;;19.31;41.98;101444.88;4895025;29;20056;-74
2022/04/13 06:40:36;;;;;;;13.30;4.13;;;;;;;19.33;42.31;101442.09;4896632;29;20048;-74
2022/04/13 06:43:04;;;;;;;6.10;3.78;;;;;;;19.32;42.77;101441.22;4897733;29;20071;-73
2022/04/13 06:45:31;;;;;;;5.97;3.50;;;;;;;19.33;42.78;101437.59;4897306;29;20056;-75
2022/04/13 06:47:59;;;;;;;4.80;3.38;;;;;;;19.36;42.74;101441.84;4896811;29;20049;-73
2022/04/13 06:50:26;;;;;;;4.93;3.42;;;;;;;19.35;42.75;101441.00;4896908;29;20051;-73
2022/04/13 06:52:54;;;;;;;7.53;4.15;;;;;;;19.36;42.80;101441.84;4896399;29;20191;-74
2022/04/13 06:55:22;;;;;;;4.75;3.90;;;;;;;19.38;42.84;101445.28;4895494;29;20071;-74
2022/04/13 06:57:49;;;;;;;5.72;4.20;;;;;;;19.37;42.84;101436.38;4895625;29;20049;-74
2022/04/13 07:00:17;;;;;;;6.63;3.78;;;;;;;19.37;42.69;101441.75;4896291;29;20392;-73
2022/04/13 07:02:45;;;;;;;4.50;3.90;;;;;;;19.38;42.62;101451.50;4896458;29;20056;-73
2022/04/13 07:05:32;;;;;;;7.28;4.30;;;;;;;19.40;42.57;101449.53;4895993;29;20049;-74
2022/04/13 07:08:00;;;;;;;7.07;3.67;;;;;;;19.40;42.71;101459.44;4895669;29;20481;-73
2022/04/13 07:10:30;;;;;;;6.43;3.75;;;;;;;19.40;42.78;101454.91;4879735;29;20052;-77
2022/04/13 07:12:58;;;;;;;5.32;3.60;;;;;;;19.42;42.89;101454.81;4896479;29;20053;-75
2022/04/13 07:15:27;;;;;;;11.95;4.78;;;;;;;19.42;42.88;101458.34;4896804;29;20067;-75
2022/04/13 07:17:56;;;;;;;10.25;7.57;;;;;;;19.37;42.15;101449.81;4897097;29;20393;-75
2022/04/13 07:20:24;;;;;;;13.23;8.38;;;;;;;19.24;42.68;101454.38;4896802;29;20060;-75
2022/04/13 07:22:53;;;;;;;9.13;7.97;;;;;;;19.21;42.89;101454.63;4896209;29;20059;-75
2022/04/13 07:25:22;;;;;;;11.43;8.55;;;;;;;19.19;43.08;101451.19;4896509;29;20401;-75
2022/04/13 07:27:50;;;;;;;10.98;8.70;;;;;;;19.18;43.36;101449.47;4895960;29;20049;-74
2022/04/13 07:30:18;;;;;;;10.63;8.50;;;;;;;19.18;43.33;101463.75;4895248;29;20051;-74
2022/04/13 07:32:46;;;;;;;11.57;9.68;;;;;;;19.16;43.14;101464.81;4896021;29;20056;-75
2022/04/13 07:35:14;;;;;;;10.27;9.27;;;;;;;19.14;43.45;101462.28;4896639;29;20511;-75
2022/04/13 07:37:43;;;;;;;11.52;9.43;;;;;;;19.14;43.78;101470.31;4896134;29;20053;-74
2022/04/13 07:40:12;;;;;;;11.98;9.75;;;;;;;19.14;43.85;101477.53;4895391;29;20048;-74
2022/04/13 07:42:40;;;;;;;12.35;10.18;;;;;;;19.15;43.77;101472.03;4894822;29;20405;-74
2022/04/13 07:45:08;;;;;;;12.60;9.55;;;;;;;19.15;43.85;101473.84;4896278;29;20048;-74
2022/04/13 07:47:37;;;;;;;10.07;8.68;;;;;;;19.18;44.02;101477.16;4896002;29;20090;-74
2022/04/13 07:50:06;;;;;;;13.25;9.48;;;;;;;19.21;43.84;101471.59;4895928;29;20400;-74
2022/04/13 07:52:35;;;;;;;8.95;8.05;;;;;;;19.23;43.78;101477.66;4895746;29;20044;-74
2022/04/13 07:55:04;;;;;;;11.57;8.70;;;;;;;19.26;43.99;101480.13;4895317;29;20512;-74
2022/04/13 07:57:31;;;;;;;10.35;9.23;;;;;;;19.28;44.09;101482.69;4895905;29;20053;-74
2022/04/13 07:59:58;;;;;;;12.38;9.07;;;;;;;19.29;44.19;101478.22;4895202;29;20049;-74
2022/04/13 08:02:27;;;;;;;11.40;9.07;;;;;;;19.30;44.33;101479.91;4895129;29;20078;-75
2022/04/13 08:04:55;;;;;;;11.10;7.28;;;;;;;19.33;44.10;101487.75;4895011;29;20057;-75
2022/04/13 08:07:29;;;;;;;11.20;8.82;;;;;;;19.35;44.21;101486.63;4895151;29;20511;-74
2022/04/13 08:09:57;;;;;;;13.73;10.60;;;;;;;19.35;44.45;101488.47;4895039;29;20052;-75
2022/04/13 08:12:28;;;;;;;12.50;9.77;;;;;;;19.35;44.76;101488.47;4894859;29;20056;-76
2022/04/13 08:14:56;;;;;;;15.23;10.80;;;;;;;19.34;44.67;101487.63;4894882;29;20056;-75
2022/04/13 08:17:25;;;;;;;14.13;9.73;;;;;;;19.37;44.19;101489.22;4895720;29;20049;-74
2022/04/13 08:19:53;;;;;;;10.13;8.02;;;;;;;19.41;43.97;101488.88;4898430;29;20519;-81
2022/04/13 08:22:27;;;;;;;11.65;7.28;;;;;;;19.43;43.95;101492.28;4898578;29;20045;-74
2022/04/13 08:24:54;;;;;;;8.48;5.82;;;;;;;19.46;43.89;101491.19;4898604;29;20049;-75
2022/04/13 08:27:22;;;;;;;8.75;6.20;;;;;;;19.47;43.59;101492.91;4898393;29;20055;-74
2022/04/13 08:29:49;;;;;;;7.97;6.03;;;;;;;19.50;43.65;101500.72;4897743;29;20045;-75
2022/04/13 08:32:18;;;;;;;5.60;5.00;;;;;;;19.52;43.72;101501.47;4897728;29;20052;-75
2022/04/13 08:34:48;;;;;;;7.13;4.90;;;;;;;19.54;43.78;101501.38;4897419;29;20056;-75
2022/04/13 08:37:15;;;;;;;6.93;5.00;;;;;;;19.55;43.60;101503.06;4962614;28;20052;-74
2022/04/13 08:39:42;;;;;;;5.80;5.03;;;;;;;19.56;43.53;101502.94;4898324;29;20059;-75
2022/04/13 08:42:14;;;;;;;8.70;4.90;;;;;;;19.56;43.82;101500.25;4897743;29;20089;-76
2022/04/13 08:44:48;;;;;;;7.93;5.13;;;;;;;19.58;43.73;101500.16;4880932;29;20064;-75
2022/04/13 08:47:18;;;;;;;7.22;4.50;;;;;;;19.59;43.65;101502.72;4897709;29;20064;-75
2022/04/13 08:49:51;;;;;;;7.00;5.30;;;;;;;19.59;43.60;101507.22;4897780;29;20060;-75
2022/04/13 08:52:30;;;;;;;7.22;4.55;;;;;;;19.61;43.89;101505.31;4897560;29;20044;-75
2022/04/13 08:55:02;;;;;;;4.63;3.92;;;;;;;19.61;43.30;101500.81;4897113;29;20053;-75
2022/04/13 08:57:34;;;;;;;4.47;3.65;;;;;;;19.62;43.35;101501.66;4897339;29;20381;-75
2022/04/13 09:00:05;;;;;;;7.45;5.05;;;;;;;19.62;44.36;101497.16;4898010;29;20057;-75
2022/04/13 09:02:47;;;;;;;6.57;5.80;;;;;;;19.63;44.81;101498.00;4896112;29;20057;-76
2022/04/13 09:05:18;;;;;;;6.57;5.70;;;;;;;19.61;44.59;101495.44;4896200;29;20052;-75
2022/04/13 09:07:52;;;;;;;7.07;5.55;;;;;;;19.62;44.14;101507.03;4897782;29;20056;-79
2022/04/13 09:10:21;;;;;;;6.65;4.47;;;;;;;19.62;44.29;101497.16;4897616;29;20056;-75
2022/04/13 09:12:50;;;;;;;6.55;5.05;;;;;;;19.64;43.69;101499.69;4897612;29;20044;-75
2022/04/13 09:15:20;;;;;;;5.07;4.38;;;;;;;19.64;43.59;101503.25;4897309;29;20053;-75
2022/04/13 09:17:53;;;;;;;7.70;4.65;;;;;;;19.66;43.65;101500.47;4897322;29;20507;-75
2022/04/13 09:20:21;;;;;;;6.47;4.25;;;;;;;19.67;43.71;101508.38;4897080;29;20053;-75
2022/04/13 09:22:52;;;;;;;5.32;4.13;;;;;;;19.67;43.65;101503.00;4897094;29;20045;-75
2022/04/13 09:25:20;;;;;;;5.88;3.97;;;;;;;19.67;43.76;101500.31;4897550;29;20080;-75
2022/04/13 09:27:48;;;;;;;5.20;3.70;;;;;;;19.68;44.12;101496.66;4897454;29;20048;-75
2022/04/13 09:30:16;;;;;;;5.60;4.15;;;;;;;19.68;44.28;101495.81;4896165;29;20048;-76
2022/04/13 09:32:45;;;;;;;6.13;4.25;;;;;;;19.69;44.57;101497.53;4897285;29;20049;-75
2022/04/13 09:35:12;;;;;;;5.78;3.97;;;;;;;19.68;44.22;101501.19;4896976;29;20055;-75
2022/04/13 09:37:40;;;;;;;5.60;3.70;;;;;;;19.68;44.30;101491.28;4897039;29;20048;-75
2022/04/13 09:40:08;;;;;;;4.25;3.55;;;;;;;19.70;44.37;101496.56;4897120;29;20152;-75
2022/04/13 09:42:36;;;;;;;7.10;3.97;;;;;;;19.70;44.32;101496.56;4897469;29;20066;-75
2022/04/13 09:45:04;;;;;;;6.25;3.97;;;;;;;19.69;44.75;101493.03;4897008;29;20059;-75
2022/04/13 09:47:33;;;;;;;6.30;4.15;;;;;;;19.69;44.42;101492.16;4898270;29;20052;-75
2022/04/13 09:50:01;;;;;;;4.95;3.70;;;;;;;19.69;43.94;101492.16;4898969;29;20048;-75
2022/04/13 09:52:38;;;;;;;6.03;4.18;;;;;;;19.70;44.26;101500.09;4896563;29;20072;-75
2022/04/13 09:55:07;;;;;;;4.65;3.58;;;;;;;19.71;44.14;101491.06;4897787;29;20048;-75
2022/04/13 09:57:34;;;;;;;3.97;3.17;;;;;;;19.72;44.10;101489.22;4897177;29;20434;-75
2022/04/13 10:00:08;;;;;;;5.30;3.72;;;;;;;19.72;43.89;101492.75;4896738;29;20052;-74
2022/04/13 10:02:43;;;;;;;5.45;3.28;;;;;;;19.73;44.25;101488.28;4896549;29;20416;-75
2022/04/13 10:05:17;;;;;;;3.97;3.00;;;;;;;19.74;44.18;101473.84;4897200;29;20057;-74
2022/04/13 10:07:44;;;;;;;4.70;3.30;;;;;;;19.73;44.18;101483.75;4897554;29;20044;-74
2022/04/13 10:10:23;;;;;;;5.28;3.28;;;;;;;19.74;43.94;101482.78;4880281;29;20056;-74
2022/04/13 10:12:54;;;;;;;4.05;3.00;;;;;;;19.74;44.10;101472.03;4897116;29;20052;-75
2022/04/13 10:15:21;;;;;;;5.50;3.22;;;;;;;19.74;44.14;101472.03;4896524;29;20057;-74
2022/04/13 10:17:49;;;;;;;6.95;3.22;;;;;;;19.75;44.21;101475.56;4896821;29;20052;-74
2022/04/13 10:20:16;;;;;;;4.93;2.85;;;;;;;19.75;44.26;101473.72;4896530;29;20412;-74
2022/04/13 10:22:56;;;;;;;3.72;2.70;;;;;;;19.75;44.35;101472.88;4896156;29;20049;-74
2022/04/13 10:25:27;;;;;;;4.60;3.33;;;;;;;19.74;44.23;101474.72;4895179;29;20049;-74
2022/04/13 10:27:56;;;;;;;5.18;3.13;;;;;;;19.73;44.38;101475.69;4897026;29;20048;-74
2022/04/13 10:30:35;;;;;;;4.88;3.00;;;;;;;19.74;44.28;101472.03;4896860;29;20128;-74
2022/04/13 10:33:12;;;;;;;3.53;2.60;;;;;;;19.74;44.39;101469.34;4897546;29;20053;-74
2022/04/13 10:35:42;;;;;;;3.50;2.60;;;;;;;19.75;44.37;101467.50;4896867;29;20052;-74
2022/04/13 10:38:09;;;;;;;4.00;3.17;;;;;;;19.74;44.28;101466.66;4897146;29;20056;-74
2022/04/13 10:40:41;;;;;;;4.47;3.17;;;;;;;19.76;44.11;101469.22;4896479;29;20052;-76
2022/04/13 10:43:13;;;;;;;4.13;2.72;;;;;;;19.75;44.19;101460.28;4896205;29;20041;-76
2022/04/13 10:45:45;;;;;;;6.43;3.20;;;;;;;19.76;44.35;101458.47;4896461;29;20057;-75
2022/04/13 10:48:19;;;;;;;4.80;3.30;;;;;;;19.76;44.27;101459.31;4896395;29;20064;-76
2022/04/13 10:50:46;;;;;;;;;;;;;;;19.76;44.38;101458.47;4896534;29;20315;-75
2022/04/13 10:53:16;;;;;;;4.35;2.60;;;;;;;19.77;44.22;101446.75;4879406;29;19946;-76
2022/04/13 10:55:45;;;;;;;4.25;2.63;;;;;;;19.77;44.21;101454.81;4896218;29;20048;-77
2022/04/13 10:58:31;;;;;;;8.68;2.83;;;;;;;19.76;44.30;101462.00;4896558;29;20059;-76
2022/04/13 11:01:04;;;;;;;3.95;2.90;;;;;;;19.78;44.11;101458.34;4896038;29;20057;-76
2022/04/13 11:03:36;;;;;;;4.18;2.70;;;;;;;19.78;44.29;101459.22;4895816;29;20045;-76
2022/04/13 11:06:06;;;;;;;3.70;2.50;;;;;;;19.79;44.29;101454.69;4896200;29;20412;-76
2022/04/13 11:08:48;;;;;;;3.50;2.60;;;;;;;19.78;44.28;101458.34;4897248;29;20075;-76
2022/04/13 11:11:21;;;;;;;5.90;2.88;;;;;;;19.76;44.08;101456.63;4897729;29;20053;-76
2022/04/13 11:13:50;;;;;;;3.75;2.70;;;;;;;19.78;43.83;101450.31;4896789;29;20045;-76
2022/04/13 11:16:19;;;;;;;3.05;2.38;;;;;;;19.78;43.54;101448.47;4896447;29;20057;-76
2022/04/13 11:19:02;;;;;;;5.40;3.00;;;;;;;19.78;43.46;101450.31;4896506;29;20044;-76
2022/04/13 11:21:31;;;;;;;4.30;2.63;;;;;;;19.78;43.55;101453.00;4894842;29;20416;-76
2022/04/13 11:23:58;;;;;;;3.40;2.38;;;;;;;19.76;43.50;101448.56;4895524;29;20056;-79
2022/04/13 11:26:34;;;;;;;3.65;2.20;;;;;;;19.78;43.62;101448.47;4895436;29;20044;-77
2022/04/13 11:29:21;;;;;;;4.28;2.33;;;;;;;19.78;43.68;101450.31;4895685;29;20103;-76
2022/04/13 11:32:06;;;;;;;4.78;2.25;;;;;;;19.79;43.60;101449.31;4895553;29;20049;-76